createdAt,value
2023-05-12T00:00:01.415Z,95224
2023-05-12T00:01:09.110Z,95222
2023-05-12T00:02:18.858Z,95218
2023-05-12T00:03:28.538Z,95219
2023-05-12T00:04:38.289Z,95220
2023-05-12T00:05:46.980Z,95221
2023-05-12T00:06:56.757Z,95218
2023-05-12T00:08:05.416Z,95216
2023-05-12T00:09:15.167Z,95218
2023-05-12T00:10:23.777Z,95215
2023-05-12T00:11:32.526Z,95217
2023-05-12T00:12:42.231Z,95212
2023-05-12T00:13:51.890Z,95214
2023-05-12T00:15:01.550Z,95215
2023-05-12T00:16:10.278Z,95219
2023-05-12T00:17:18.936Z,95214
2023-05-12T00:18:28.740Z,95216
2023-05-12T00:19:37.238Z,95217
2023-05-12T00:20:46.978Z,95215
2023-05-12T00:21:56.651Z,95222
2023-05-12T00:23:05.297Z,95216
2023-05-12T00:24:13.984Z,95221
2023-05-12T00:25:22.686Z,95219
2023-05-12T00:26:32.441Z,95220
2023-05-12T00:27:42.159Z,95215
2023-05-12T00:28:51.868Z,95215
2023-05-12T00:30:00.572Z,95215
2023-05-12T00:31:10.250Z,95216
2023-05-12T00:32:18.907Z,95215
2023-05-12T00:33:27.578Z,95215
2023-05-12T00:34:36.318Z,95214
2023-05-12T00:35:45.945Z,95212
2023-05-12T00:36:55.645Z,95210
2023-05-12T00:38:03.293Z,95209
2023-05-12T00:39:11.983Z,95211
2023-05-12T00:40:21.802Z,95208
2023-05-12T00:41:31.309Z,95208
2023-05-12T00:42:39.991Z,95212
2023-05-12T00:43:48.719Z,95205
2023-05-12T00:44:58.414Z,95207
2023-05-12T00:46:08.159Z,95204
2023-05-12T00:47:16.871Z,95205
2023-05-12T00:48:25.595Z,95208
2023-05-12T00:49:35.255Z,95208
2023-05-12T00:50:44.958Z,95209
2023-05-12T00:51:54.583Z,95210
2023-05-12T00:53:03.295Z,95207
2023-05-12T00:54:11.992Z,95205
2023-05-12T00:55:21.672Z,95203
2023-05-12T00:56:29.329Z,95207
2023-05-12T00:57:37.965Z,95202
2023-05-12T00:58:47.720Z,95201
2023-05-12T00:59:55.381Z,95195
2023-05-12T01:01:04.119Z,95202
2023-05-12T01:02:13.844Z,95203
2023-05-12T01:03:23.503Z,95204
2023-05-12T01:04:33.160Z,95200
2023-05-12T01:05:39.823Z,95202
2023-05-12T01:06:48.599Z,95202
2023-05-12T01:07:58.278Z,95201
2023-05-12T01:09:06.938Z,95196
2023-05-12T01:10:16.658Z,95191
2023-05-12T01:11:26.278Z,95196
2023-05-12T01:12:35.006Z,95192
2023-05-12T01:13:44.757Z,95194
2023-05-12T01:14:53.543Z,95194
2023-05-12T01:16:02.133Z,95194
2023-05-12T01:17:11.885Z,95196
2023-05-12T01:18:20.535Z,95195
2023-05-12T01:19:30.147Z,95194
2023-05-12T01:20:39.840Z,95193
2023-05-12T01:21:48.550Z,95193
2023-05-12T01:22:58.244Z,95196
2023-05-12T01:24:06.886Z,95195
2023-05-12T01:25:16.640Z,95196
2023-05-12T01:26:24.336Z,95197
2023-05-12T01:27:32.983Z,95192
2023-05-12T01:28:42.642Z,95198
2023-05-12T01:29:52.298Z,95193
2023-05-12T01:31:01.071Z,95189
2023-05-12T01:32:10.686Z,95195
2023-05-12T01:33:19.347Z,95195
2023-05-12T01:34:29.058Z,95192
2023-05-12T01:35:37.789Z,95190
2023-05-12T01:36:47.482Z,95193
2023-05-12T01:37:57.130Z,95194
2023-05-12T01:39:04.824Z,95187
2023-05-12T01:40:14.549Z,95193
2023-05-12T01:41:23.195Z,95192
2023-05-12T01:42:31.894Z,95195
2023-05-12T01:43:41.559Z,95192
2023-05-12T01:44:49.319Z,95198
2023-05-12T01:45:58.000Z,95197
2023-05-12T01:47:07.678Z,95197
2023-05-12T01:48:15.361Z,95196
2023-05-12T01:49:25.013Z,95198
2023-05-12T01:50:33.725Z,95191
2023-05-12T01:51:42.367Z,95199
2023-05-12T01:52:52.146Z,95196
2023-05-12T01:54:00.803Z,95195
2023-05-12T01:55:10.536Z,95193
2023-05-12T01:56:20.172Z,95196
2023-05-12T01:57:28.846Z,95196
2023-05-12T01:58:37.642Z,95196
2023-05-12T01:59:47.292Z,95198
2023-05-12T02:00:56.940Z,95194
2023-05-12T02:02:06.730Z,95194
2023-05-12T02:03:15.452Z,95198
2023-05-12T02:04:24.042Z,95195
2023-05-12T02:05:33.699Z,95191
2023-05-12T02:06:42.464Z,95192
2023-05-12T02:07:52.122Z,95190
2023-05-12T02:09:00.827Z,95190
2023-05-12T02:10:09.548Z,95189
2023-05-12T02:11:19.250Z,95189
2023-05-12T02:12:27.877Z,95192
2023-05-12T02:13:37.640Z,95192
2023-05-12T02:14:47.302Z,95193
2023-05-12T02:15:55.006Z,95191
2023-05-12T02:17:04.699Z,95190
2023-05-12T02:18:13.391Z,95191
2023-05-12T02:19:22.080Z,95186
2023-05-12T02:20:29.767Z,95185
2023-05-12T02:21:39.462Z,95188
2023-05-12T02:22:48.156Z,95187
2023-05-12T02:23:57.855Z,95186
2023-05-12T02:25:07.517Z,95181
2023-05-12T02:26:16.195Z,95188
2023-05-12T02:27:25.992Z,95184
2023-05-12T02:28:35.689Z,95185
2023-05-12T02:29:44.365Z,95179
2023-05-12T02:30:54.053Z,95184
2023-05-12T02:32:04.000Z,95180
2023-05-12T02:33:13.687Z,95184
2023-05-12T02:34:21.411Z,95177
2023-05-12T02:35:30.077Z,95182
2023-05-12T02:36:38.858Z,95182
2023-05-12T02:37:48.582Z,95184
2023-05-12T02:38:58.270Z,95184
2023-05-12T02:40:05.985Z,95187
2023-05-12T02:41:14.673Z,95186
2023-05-12T02:42:24.434Z,95188
2023-05-12T02:43:33.140Z,95189
2023-05-12T02:44:42.812Z,95188
2023-05-12T02:45:52.529Z,95187
2023-05-12T02:47:01.200Z,95189
2023-05-12T02:48:10.942Z,95190
2023-05-12T02:49:20.556Z,95191
2023-05-12T02:50:30.208Z,95194
2023-05-12T02:51:40.124Z,95195
2023-05-12T02:52:46.821Z,95193
2023-05-12T02:53:55.477Z,95194
2023-05-12T02:55:04.160Z,95201
2023-05-12T02:56:12.832Z,95198
2023-05-12T02:57:22.539Z,95198
2023-05-12T02:58:31.245Z,95197
2023-05-12T02:59:40.952Z,95197
2023-05-12T03:00:57.086Z,95198
2023-05-12T03:02:01.321Z,95198
2023-05-12T03:03:11.084Z,95202
2023-05-12T03:04:19.721Z,95194
2023-05-12T03:05:29.413Z,95199
2023-05-12T03:06:39.099Z,95196
2023-05-12T03:07:47.758Z,95199
2023-05-12T03:08:56.602Z,95197
2023-05-12T03:10:06.756Z,95199
2023-05-12T03:11:16.448Z,95201
2023-05-12T03:12:26.181Z,95203
2023-05-12T03:13:35.851Z,95202
2023-05-12T03:14:44.599Z,95202
2023-05-12T03:15:54.347Z,95206
2023-05-12T03:17:03.113Z,95203
2023-05-12T03:18:11.769Z,95203
2023-05-12T03:19:21.464Z,95205
2023-05-12T03:20:29.156Z,95203
2023-05-12T03:21:37.820Z,95204
2023-05-12T03:22:47.552Z,95203
2023-05-12T03:23:56.298Z,95204
2023-05-12T03:25:06.063Z,95204
2023-05-12T03:26:14.852Z,95199
2023-05-12T03:27:24.550Z,95204
2023-05-12T03:28:34.285Z,95204
2023-05-12T03:29:42.997Z,95208
2023-05-12T03:30:52.703Z,95206
2023-05-12T03:32:01.384Z,95209
2023-05-12T03:33:10.073Z,95208
2023-05-12T03:34:18.817Z,95211
2023-05-12T03:35:27.491Z,95208
2023-05-12T03:36:37.150Z,95208
2023-05-12T03:37:46.833Z,95208
2023-05-12T03:38:56.530Z,95210
2023-05-12T03:40:06.196Z,95211
2023-05-12T03:41:14.854Z,95206
2023-05-12T03:42:23.560Z,95205
2023-05-12T03:43:33.263Z,95201
2023-05-12T03:44:41.983Z,95197
2023-05-12T03:45:51.696Z,95196
2023-05-12T03:46:59.501Z,95194
2023-05-12T03:48:09.191Z,95191
2023-05-12T03:49:18.833Z,95196
2023-05-12T03:50:27.528Z,95196
2023-05-12T03:51:36.197Z,95195
2023-05-12T03:52:45.943Z,95198
2023-05-12T03:53:54.623Z,95200
2023-05-12T03:55:04.296Z,95199
2023-05-12T03:56:12.966Z,95199
2023-05-12T03:57:22.698Z,95199
2023-05-12T03:58:32.399Z,95198
2023-05-12T03:59:42.089Z,95201
2023-05-12T04:00:50.851Z,95199
2023-05-12T04:02:00.668Z,95199
2023-05-12T04:03:10.407Z,95195
2023-05-12T04:04:20.109Z,95197
2023-05-12T04:05:28.066Z,95197
2023-05-12T04:06:37.888Z,95198
2023-05-12T04:07:47.720Z,95200
2023-05-12T04:08:55.605Z,95197
2023-05-12T04:10:05.385Z,95195
2023-05-12T04:11:15.323Z,95198
2023-05-12T04:12:25.306Z,95200
2023-05-12T04:13:35.155Z,95196
2023-05-12T04:14:43.934Z,95195
2023-05-12T04:15:53.589Z,95192
2023-05-12T04:17:03.331Z,95199
2023-05-12T04:18:13.116Z,95195
2023-05-12T04:19:22.786Z,95195
2023-05-12T04:20:31.494Z,95202
2023-05-12T04:21:41.195Z,95202
2023-05-12T04:22:50.901Z,95201
2023-05-12T04:23:58.570Z,95207
2023-05-12T04:25:08.213Z,95203
2023-05-12T04:26:16.958Z,95202
2023-05-12T04:27:25.629Z,95200
2023-05-12T04:28:35.803Z,95203
2023-05-12T04:29:45.479Z,95206
2023-05-12T04:30:55.262Z,95202
2023-05-12T04:32:04.989Z,95205
2023-05-12T04:33:13.634Z,95202
2023-05-12T04:34:23.298Z,95207
2023-05-12T04:35:32.993Z,95203
2023-05-12T04:36:40.712Z,95204
2023-05-12T04:37:49.379Z,95205
2023-05-12T04:38:58.138Z,95207
2023-05-12T04:40:07.845Z,95210
2023-05-12T04:41:17.584Z,95208
2023-05-12T04:42:25.243Z,95212
2023-05-12T04:44:45.569Z,95210
2023-05-12T04:45:54.235Z,95220
2023-05-12T04:47:02.886Z,95217
2023-05-12T04:48:11.532Z,95218
2023-05-12T04:49:20.219Z,95218
2023-05-12T04:50:30.015Z,95223
2023-05-12T04:51:39.660Z,95219
2023-05-12T04:52:48.310Z,95223
2023-05-12T04:53:58.027Z,95220
2023-05-12T04:55:05.716Z,95222
2023-05-12T04:56:14.374Z,95225
2023-05-12T04:57:24.118Z,95225
2023-05-12T04:58:32.780Z,95231
2023-05-12T04:59:42.450Z,95227
2023-05-12T05:00:51.094Z,95225
2023-05-12T05:01:59.860Z,95229
2023-05-12T05:03:09.574Z,95225
2023-05-12T05:04:18.183Z,95231
2023-05-12T05:05:27.829Z,95229
2023-05-12T05:06:37.611Z,95229
2023-05-12T05:07:47.315Z,95233
2023-05-12T05:08:57.022Z,95231
2023-05-12T05:10:04.666Z,95234
2023-05-12T05:11:14.403Z,95233
2023-05-12T05:12:25.108Z,95234
2023-05-12T05:13:33.812Z,95234
2023-05-12T05:14:42.529Z,95230
2023-05-12T05:15:52.197Z,95231
2023-05-12T05:17:01.842Z,95230
2023-05-12T05:18:11.585Z,95231
2023-05-12T05:19:25.450Z,95232
2023-05-12T05:20:32.299Z,95227
2023-05-12T05:21:41.627Z,95231
2023-05-12T05:22:51.440Z,95225
2023-05-12T05:24:01.087Z,95228
2023-05-12T05:25:11.738Z,95233
2023-05-12T05:26:21.452Z,95235
2023-05-12T05:27:31.165Z,95230
2023-05-12T05:28:40.828Z,95232
2023-05-12T05:29:50.559Z,95235
2023-05-12T05:31:00.188Z,95236
2023-05-12T05:32:09.882Z,95241
2023-05-12T05:33:19.598Z,95244
2023-05-12T05:34:28.303Z,95239
2023-05-12T05:35:36.985Z,95239
2023-05-12T05:36:46.032Z,95240
2023-05-12T05:37:55.850Z,95244
2023-05-12T05:39:05.741Z,95242
2023-05-12T05:40:14.490Z,95240
2023-05-12T05:41:23.346Z,95242
2023-05-12T05:42:33.142Z,95238
2023-05-12T05:43:41.973Z,95244
2023-05-12T05:44:50.708Z,95241
2023-05-12T05:45:59.407Z,95243
2023-05-12T05:47:09.168Z,95242
2023-05-12T05:48:18.824Z,95241
2023-05-12T05:49:28.490Z,95246
2023-05-12T05:50:37.213Z,95239
2023-05-12T05:51:46.891Z,95243
2023-05-12T05:52:56.633Z,95242
2023-05-12T05:54:06.272Z,95239
2023-05-12T05:55:15.949Z,95242
2023-05-12T05:56:24.608Z,95247
2023-05-12T05:57:34.265Z,95241
2023-05-12T05:58:42.921Z,95243
2023-05-12T05:59:51.647Z,95241
2023-05-12T06:01:01.290Z,95241
2023-05-12T06:02:10.980Z,95243
2023-05-12T06:03:20.673Z,95240
2023-05-12T06:04:29.373Z,95248
2023-05-12T06:05:38.027Z,95244
2023-05-12T06:06:47.703Z,95245
2023-05-12T06:07:57.358Z,95250
2023-05-12T06:09:06.075Z,95242
2023-05-12T06:10:15.704Z,95248
2023-05-12T06:11:25.350Z,95248
2023-05-12T06:12:34.009Z,95246
2023-05-12T06:13:42.759Z,95247
2023-05-12T06:14:52.426Z,95249
2023-05-12T06:16:02.083Z,95248
2023-05-12T06:17:09.726Z,95249
2023-05-12T06:18:18.386Z,95248
2023-05-12T06:19:28.044Z,95245
2023-05-12T06:20:36.692Z,95247
2023-05-12T06:21:45.356Z,95251
2023-05-12T06:22:55.038Z,95253
2023-05-12T06:24:04.756Z,95254
2023-05-12T06:25:14.424Z,95256
2023-05-12T06:26:23.065Z,95252
2023-05-12T06:27:31.740Z,95253
2023-05-12T06:28:40.394Z,95254
2023-05-12T06:29:50.051Z,95254
2023-05-12T06:30:58.727Z,95259
2023-05-12T06:32:08.432Z,95259
2023-05-12T06:33:18.072Z,95259
2023-05-12T06:34:27.737Z,95258
2023-05-12T06:35:36.467Z,95261
2023-05-12T06:36:46.146Z,95263
2023-05-12T06:37:56.807Z,95263
2023-05-12T06:39:05.449Z,95260
2023-05-12T06:40:14.116Z,95264
2023-05-12T06:41:23.789Z,95270
2023-05-12T06:42:33.461Z,95262
2023-05-12T06:43:43.151Z,95263
2023-05-12T06:44:50.786Z,95265
2023-05-12T06:46:00.492Z,95269
2023-05-12T06:47:10.223Z,95268
2023-05-12T06:48:18.905Z,95261
2023-05-12T06:49:27.544Z,95262
2023-05-12T06:50:36.193Z,95264
2023-05-12T06:51:45.907Z,95259
2023-05-12T06:52:55.546Z,95260
2023-05-12T06:54:04.196Z,95260
2023-05-12T06:55:12.869Z,95263
2023-05-12T06:56:22.573Z,95263
2023-05-12T06:57:32.287Z,95261
2023-05-12T06:58:41.923Z,95259
2023-05-12T06:59:51.605Z,95258
2023-05-12T07:01:01.310Z,95256
2023-05-12T07:02:10.958Z,95258
2023-05-12T07:03:19.642Z,95262
2023-05-12T07:04:28.247Z,95263
2023-05-12T07:05:38.025Z,95263
2023-05-12T07:06:46.607Z,95257
2023-05-12T07:07:56.262Z,95259
2023-05-12T07:09:04.924Z,95260
2023-05-12T07:10:14.608Z,95264
2023-05-12T07:11:24.256Z,95264
2023-05-12T07:12:31.964Z,95265
2023-05-12T07:13:40.679Z,95267
2023-05-12T07:14:50.363Z,95263
2023-05-12T07:15:57.049Z,95267
2023-05-12T07:17:04.676Z,95264
2023-05-12T07:18:13.341Z,95265
2023-05-12T07:19:22.010Z,95260
2023-05-12T07:20:31.702Z,95266
2023-05-12T07:21:40.414Z,95265
2023-05-12T07:22:50.074Z,95261
2023-05-12T07:23:57.757Z,95260
2023-05-12T07:26:17.114Z,95259
2023-05-12T07:27:25.736Z,95260
2023-05-12T07:28:35.413Z,95257
2023-05-12T07:29:45.156Z,95260
2023-05-12T07:30:54.805Z,95263
2023-05-12T07:32:04.425Z,95265
2023-05-12T07:33:11.155Z,95258
2023-05-12T07:34:20.774Z,95262
2023-05-12T07:35:30.451Z,95259
2023-05-12T07:36:40.132Z,95264
2023-05-12T07:37:49.802Z,95257
2023-05-12T07:38:58.525Z,95256
2023-05-12T07:40:07.144Z,95257
2023-05-12T07:41:16.802Z,95258
2023-05-12T07:42:25.433Z,95262
2023-05-12T07:43:35.137Z,95263
2023-05-12T07:44:44.790Z,95263
2023-05-12T07:45:53.478Z,95263
2023-05-12T07:47:03.156Z,95267
2023-05-12T07:48:11.872Z,95265
2023-05-12T07:49:20.557Z,95259
2023-05-12T07:50:30.165Z,95261
2023-05-12T07:51:38.813Z,95260
2023-05-12T07:52:48.470Z,95262
2023-05-12T07:53:58.189Z,95263
2023-05-12T07:55:06.775Z,95261
2023-05-12T07:56:16.428Z,95265
2023-05-12T07:57:26.150Z,95264
2023-05-12T07:58:34.785Z,95266
2023-05-12T07:59:44.477Z,95265
2023-05-12T08:00:53.133Z,95263
2023-05-12T08:02:03.017Z,95265
2023-05-12T08:03:12.511Z,95266
2023-05-12T08:04:21.148Z,95268
2023-05-12T08:05:29.782Z,95267
2023-05-12T08:06:39.458Z,95264
2023-05-12T08:07:48.118Z,95271
2023-05-12T08:08:58.772Z,95267
2023-05-12T08:10:07.408Z,95268
2023-05-12T08:11:16.096Z,95268
2023-05-12T08:12:25.779Z,95271
2023-05-12T08:13:34.434Z,95265
2023-05-12T08:14:44.101Z,95266
2023-05-12T08:15:52.828Z,95265
2023-05-12T08:17:01.552Z,95261
2023-05-12T08:18:11.251Z,95263
2023-05-12T08:19:19.837Z,95266
2023-05-12T08:20:29.559Z,95262
2023-05-12T08:21:39.184Z,95266
2023-05-12T08:22:47.841Z,95262
2023-05-12T08:23:57.480Z,95269
2023-05-12T08:25:07.403Z,95270
2023-05-12T08:26:16.802Z,95271
2023-05-12T08:27:26.447Z,95266
2023-05-12T08:28:35.109Z,95272
2023-05-12T08:29:43.784Z,95269
2023-05-12T08:30:53.444Z,95271
2023-05-12T08:32:04.109Z,95270
2023-05-12T08:33:12.779Z,95276
2023-05-12T08:34:21.550Z,95276
2023-05-12T08:35:31.108Z,95277
2023-05-12T08:36:40.758Z,95270
2023-05-12T08:37:49.391Z,95273
2023-05-12T08:38:59.069Z,95279
2023-05-12T08:40:08.739Z,95279
2023-05-12T08:41:17.372Z,95273
2023-05-12T08:42:27.640Z,95275
2023-05-12T08:43:36.295Z,95272
2023-05-12T08:44:44.953Z,95272
2023-05-12T08:45:55.623Z,95273
2023-05-12T08:47:04.249Z,95271
2023-05-12T08:48:13.932Z,95280
2023-05-12T08:49:23.609Z,95279
2023-05-12T08:50:33.316Z,95279
2023-05-12T08:51:41.942Z,95277
2023-05-12T08:52:52.573Z,95279
2023-05-12T08:54:01.235Z,95277
2023-05-12T08:55:10.902Z,95274
2023-05-12T08:57:30.266Z,95275
2023-05-12T08:58:42.300Z,95274
2023-05-12T08:59:48.476Z,95269
2023-05-12T09:00:58.162Z,95270
2023-05-12T09:02:06.833Z,95274
2023-05-12T09:03:16.501Z,95275
2023-05-12T09:04:26.144Z,95274
2023-05-12T09:05:36.928Z,95273
2023-05-12T09:06:45.399Z,95272
2023-05-12T09:07:56.097Z,95266
2023-05-12T09:09:05.745Z,95271
2023-05-12T09:10:26.313Z,95272
2023-05-12T09:11:26.055Z,95271
2023-05-12T09:12:34.729Z,95269
2023-05-12T09:13:44.373Z,95274
2023-05-12T09:14:53.018Z,95274
2023-05-12T09:16:02.791Z,95277
2023-05-12T09:17:12.328Z,95277
2023-05-12T09:18:21.081Z,95274
2023-05-12T09:19:30.778Z,95276
2023-05-12T09:20:39.494Z,95276
2023-05-12T09:21:49.264Z,95276
2023-05-12T09:22:58.868Z,95274
2023-05-12T09:24:08.538Z,95276
2023-05-12T09:25:18.299Z,95274
2023-05-12T09:26:25.865Z,95274
2023-05-12T09:27:34.514Z,95278
2023-05-12T09:28:44.214Z,95271
2023-05-12T09:29:58.875Z,95274
2023-05-12T09:31:01.581Z,95275
2023-05-12T09:32:10.267Z,95273
2023-05-12T09:33:18.904Z,95272
2023-05-12T09:34:28.589Z,95276
2023-05-12T09:35:37.285Z,95274
2023-05-12T09:36:46.929Z,95274
2023-05-12T09:37:56.616Z,95272
2023-05-12T09:39:06.119Z,95274
2023-05-12T09:40:15.828Z,95280
2023-05-12T09:41:25.509Z,95280
2023-05-12T09:42:34.127Z,95277
2023-05-12T09:43:43.783Z,95280
2023-05-12T09:44:52.458Z,95276
2023-05-12T09:46:02.157Z,95280
2023-05-12T09:47:11.776Z,95278
2023-05-12T09:48:20.421Z,95283
2023-05-12T09:49:29.131Z,95281
2023-05-12T09:50:46.769Z,95283
2023-05-12T09:51:47.412Z,95282
2023-05-12T09:52:58.115Z,95283
2023-05-12T09:54:07.908Z,95283
2023-05-12T09:55:16.401Z,95288
2023-05-12T09:56:26.056Z,95283
2023-05-12T09:57:34.710Z,95281
2023-05-12T09:58:43.393Z,95280
2023-05-12T09:59:52.060Z,95282
2023-05-12T10:01:18.234Z,95282
2023-05-12T10:02:12.402Z,95278
2023-05-12T10:03:20.032Z,95278
2023-05-12T10:04:29.705Z,95278
2023-05-12T10:05:39.332Z,95277
2023-05-12T10:06:49.971Z,95274
2023-05-12T10:07:59.640Z,95278
2023-05-12T10:09:09.326Z,95275
2023-05-12T10:10:17.931Z,95278
2023-05-12T10:11:27.583Z,95275
2023-05-12T10:12:36.259Z,95278
2023-05-12T10:13:45.924Z,95280
2023-05-12T10:14:55.604Z,95279
2023-05-12T10:16:04.256Z,95279
2023-05-12T10:17:13.028Z,95279
2023-05-12T10:18:21.671Z,95277
2023-05-12T10:19:30.275Z,95275
2023-05-12T10:20:39.949Z,95279
2023-05-12T10:21:47.646Z,95283
2023-05-12T10:22:57.397Z,95282
2023-05-12T10:24:08.020Z,95284
2023-05-12T10:25:18.781Z,95289
2023-05-12T10:26:28.314Z,95283
2023-05-12T10:27:38.017Z,95281
2023-05-12T10:28:47.691Z,95285
2023-05-12T10:29:57.331Z,95287
2023-05-12T10:31:06.294Z,95287
2023-05-12T10:32:16.118Z,95284
2023-05-12T10:33:25.780Z,95286
2023-05-12T10:34:35.430Z,95286
2023-05-12T10:35:46.200Z,95284
2023-05-12T10:36:54.784Z,95286
2023-05-12T10:38:04.417Z,95284
2023-05-12T10:39:14.076Z,95288
2023-05-12T10:40:23.787Z,95288
2023-05-12T10:41:33.460Z,95286
2023-05-12T10:42:43.150Z,95285
2023-05-12T10:43:52.790Z,95283
2023-05-12T10:45:01.443Z,95287
2023-05-12T10:46:11.197Z,95286
2023-05-12T10:47:19.780Z,95284
2023-05-12T10:48:29.414Z,95286
2023-05-12T10:49:39.067Z,95289
2023-05-12T10:50:47.776Z,95290
2023-05-12T10:51:57.431Z,95290
2023-05-12T10:53:05.119Z,95287
2023-05-12T10:54:14.765Z,95292
2023-05-12T10:55:24.680Z,95294
2023-05-12T10:56:35.315Z,95291
2023-05-12T10:57:44.987Z,95297
2023-05-12T10:58:54.587Z,95294
2023-05-12T11:00:04.783Z,95294
2023-05-12T11:01:13.193Z,95291
2023-05-12T11:02:21.998Z,95292
2023-05-12T11:03:32.090Z,95290
2023-05-12T11:04:41.895Z,95290
2023-05-12T11:05:51.645Z,95291
2023-05-12T11:07:01.271Z,95291
2023-05-12T11:08:09.758Z,95295
2023-05-12T11:09:18.222Z,95295
2023-05-12T11:10:27.726Z,95295
2023-05-12T11:11:38.642Z,95297
2023-05-12T11:12:48.065Z,95293
2023-05-12T11:13:56.876Z,95296
2023-05-12T11:15:06.724Z,95295
2023-05-12T11:16:16.280Z,95293
2023-05-12T11:17:25.866Z,95293
2023-05-12T11:18:35.624Z,95293
2023-05-12T11:19:44.247Z,95295
2023-05-12T11:20:52.909Z,95292
2023-05-12T11:22:02.576Z,95296
2023-05-12T11:23:10.287Z,95295
2023-05-12T11:24:19.971Z,95294
2023-05-12T11:25:28.693Z,95298
2023-05-12T11:26:38.311Z,95298
2023-05-12T11:27:48.026Z,95297
2023-05-12T11:28:56.647Z,95302
2023-05-12T11:30:06.309Z,95300
2023-05-12T11:31:15.976Z,95301
2023-05-12T11:32:25.751Z,95306
2023-05-12T11:33:35.354Z,95305
2023-05-12T11:34:45.001Z,95304
2023-05-12T11:35:54.672Z,95303
2023-05-12T11:37:04.377Z,95296
2023-05-12T11:38:14.178Z,95296
2023-05-12T11:39:23.843Z,95301
2023-05-12T11:40:33.510Z,95307
2023-05-12T11:41:43.197Z,95297
2023-05-12T11:42:53.933Z,95301
2023-05-12T11:44:03.558Z,95297
2023-05-12T11:45:13.238Z,95303
2023-05-12T11:46:23.027Z,95299
2023-05-12T11:47:32.564Z,95297
2023-05-12T11:48:41.199Z,95302
2023-05-12T11:49:50.849Z,95299
2023-05-12T11:50:59.506Z,95301
2023-05-12T11:52:09.243Z,95308
2023-05-12T11:53:17.902Z,95300
2023-05-12T11:54:26.560Z,95302
2023-05-12T11:55:36.255Z,95299
2023-05-12T11:56:45.998Z,95304
2023-05-12T11:57:55.644Z,95304
2023-05-12T11:59:05.348Z,95307
2023-05-12T12:00:13.944Z,95308
2023-05-12T12:01:23.677Z,95304
2023-05-12T12:02:33.427Z,95305
2023-05-12T12:03:43.100Z,95310
2023-05-12T12:04:52.733Z,95310
2023-05-12T12:06:02.406Z,95310
2023-05-12T12:07:11.039Z,95308
2023-05-12T12:08:20.689Z,95308
2023-05-12T12:09:30.337Z,95310
2023-05-12T12:10:39.028Z,95310
2023-05-12T12:11:47.696Z,95312
2023-05-12T12:12:57.363Z,95316
2023-05-12T12:14:07.139Z,95312
2023-05-12T12:15:15.732Z,95313
2023-05-12T12:16:24.515Z,95314
2023-05-12T12:17:34.114Z,95320
2023-05-12T12:18:42.778Z,95314
2023-05-12T12:19:52.432Z,95311
2023-05-12T12:21:00.076Z,95312
2023-05-12T12:22:09.721Z,95321
2023-05-12T12:23:19.372Z,95318
2023-05-12T12:24:29.093Z,95318
2023-05-12T12:25:37.748Z,95321
2023-05-12T12:26:47.433Z,95312
2023-05-12T12:27:57.094Z,95317
2023-05-12T12:29:05.801Z,95319
2023-05-12T12:30:15.582Z,95313
2023-05-12T12:31:24.227Z,95314
2023-05-12T12:32:33.896Z,95316
2023-05-12T12:33:42.566Z,95314
2023-05-12T12:34:52.213Z,95319
2023-05-12T12:36:02.178Z,95318
2023-05-12T12:37:09.835Z,95314
2023-05-12T12:38:19.591Z,95318
2023-05-12T12:39:28.279Z,95316
2023-05-12T12:40:36.949Z,95316
2023-05-12T12:41:46.623Z,95314
2023-05-12T12:42:54.305Z,95309
2023-05-12T12:44:03.974Z,95318
2023-05-12T12:45:13.666Z,95315
2023-05-12T12:46:23.298Z,95311
2023-05-12T12:47:32.030Z,95312
2023-05-12T12:48:40.708Z,95316
2023-05-12T12:49:49.347Z,95312
2023-05-12T12:50:59.024Z,95315
2023-05-12T12:52:07.677Z,95315
2023-05-12T12:53:16.354Z,95316
2023-05-12T12:54:26.043Z,95312
2023-05-12T12:55:33.705Z,95313
2023-05-12T12:56:42.383Z,95313
2023-05-12T12:57:52.055Z,95316
2023-05-12T12:59:00.703Z,95312
2023-05-12T13:00:10.451Z,95313
2023-05-12T13:01:20.201Z,95312
2023-05-12T13:02:29.843Z,95314
2023-05-12T13:03:39.471Z,95313
2023-05-12T13:04:47.101Z,95308
2023-05-12T13:05:55.770Z,95311
2023-05-12T13:07:05.455Z,95314
2023-05-12T13:08:15.108Z,95311
2023-05-12T13:09:24.786Z,95313
2023-05-12T13:10:33.567Z,95313
2023-05-12T13:11:43.240Z,95316
2023-05-12T13:12:52.912Z,95315
2023-05-12T13:14:01.564Z,95314
2023-05-12T13:15:11.205Z,95313
2023-05-12T13:16:19.895Z,95313
2023-05-12T13:17:28.584Z,95310
2023-05-12T13:18:38.276Z,95316
2023-05-12T13:19:46.917Z,95309
2023-05-12T13:20:56.622Z,95313
2023-05-12T13:22:04.270Z,95312
2023-05-12T13:23:13.944Z,95314
2023-05-12T13:24:23.628Z,95309
2023-05-12T13:25:31.295Z,95308
2023-05-12T13:26:39.951Z,95311
2023-05-12T13:27:49.599Z,95309
2023-05-12T13:28:58.290Z,95306
2023-05-12T13:30:08.121Z,95310
2023-05-12T13:31:17.675Z,95308
2023-05-12T13:32:27.288Z,95309
2023-05-12T13:33:36.963Z,95312
2023-05-12T13:34:47.729Z,95310
2023-05-12T13:35:56.308Z,95307
2023-05-12T13:37:05.995Z,95303
2023-05-12T13:38:15.654Z,95312
2023-05-12T13:39:25.345Z,95309
2023-05-12T13:40:33.995Z,95309
2023-05-12T13:41:43.634Z,95309
2023-05-12T13:42:53.270Z,95310
2023-05-12T13:44:01.991Z,95310
2023-05-12T13:45:11.690Z,95314
2023-05-12T13:46:21.347Z,95308
2023-05-12T13:47:31.002Z,95307
2023-05-12T13:48:40.705Z,95306
2023-05-12T13:49:49.558Z,95309
2023-05-12T13:50:58.203Z,95301
2023-05-12T13:52:07.818Z,95300
2023-05-12T13:53:17.554Z,95301
2023-05-12T13:54:26.212Z,95310
2023-05-12T13:55:34.886Z,95314
2023-05-12T13:56:44.599Z,95310
2023-05-12T13:57:54.302Z,95312
2023-05-12T13:59:03.661Z,95311
2023-05-12T14:00:12.377Z,95308
2023-05-12T14:01:22.077Z,95311
2023-05-12T14:02:30.759Z,95308
2023-05-12T14:03:40.435Z,95302
2023-05-12T14:04:50.202Z,95306
2023-05-12T14:05:58.846Z,95306
2023-05-12T14:07:09.438Z,95308
2023-05-12T14:08:17.109Z,95310
2023-05-12T14:09:26.783Z,95312
2023-05-12T14:10:36.447Z,95311
2023-05-12T14:11:45.146Z,95309
2023-05-12T14:12:53.801Z,95307
2023-05-12T14:14:02.462Z,95308
2023-05-12T14:15:23.903Z,95306
2023-05-12T14:16:23.356Z,95309
2023-05-12T14:17:33.020Z,95307
2023-05-12T14:18:43.618Z,95305
2023-05-12T14:19:52.297Z,95308
2023-05-12T14:21:02.073Z,95307
2023-05-12T14:22:18.880Z,95300
2023-05-12T14:23:22.290Z,95304
2023-05-12T14:24:31.937Z,95303
2023-05-12T14:25:41.640Z,95310
2023-05-12T14:26:50.344Z,95312
2023-05-12T14:27:58.995Z,95311
2023-05-12T14:29:08.896Z,95311
2023-05-12T14:30:16.357Z,95325
2023-05-12T14:31:25.025Z,95315
2023-05-12T14:32:34.715Z,95326
2023-05-12T14:33:44.357Z,95321
2023-05-12T14:34:54.055Z,95321
2023-05-12T14:36:06.923Z,95317
2023-05-12T14:37:12.374Z,95318
2023-05-12T14:38:22.011Z,95319
2023-05-12T14:39:30.702Z,95316
2023-05-12T14:40:40.510Z,95319
2023-05-12T14:41:50.065Z,95322
2023-05-12T14:42:58.729Z,95323
2023-05-12T14:44:08.403Z,95320
2023-05-12T14:45:17.067Z,95322
2023-05-12T14:46:25.889Z,95319
2023-05-12T14:47:35.328Z,95323
2023-05-12T14:48:44.028Z,95319
2023-05-12T14:49:52.735Z,95324
2023-05-12T14:51:02.378Z,95328
2023-05-12T14:52:13.047Z,95328
2023-05-12T14:53:22.759Z,95328
2023-05-12T14:54:31.440Z,95328